LavenderCAM.net
Leatherhead Weather
 
Leatherhead Weather
 
 





Aviation weather for

London Heathrow (EGLL) and London Gatwick (EGKK)



London Heathrow (EGLL) METAR / Surface Actual
London / Heathrow Airport, United Kingdom (EGLL) 51-29N 000-27W 0M
Sep 19, 2021 - 08:50 PM EDT / 2021.09.20 0050 UTC
Wind: from the NW (320 degrees) at 5 MPH (4 KT) (direction variable):0
Visibility: greater than 7 mile(s):0
Temperature: 57 F (14 C)
Dew Point: 51 F (11 C)
Relative Humidity: 82%
Pressure (altimeter): 30.09 in. Hg (1019 hPa)
ob: EGLL 200050Z AUTO 32004KT 280V010 9999 NCD 14/11 Q1019
cycle: 1
London Heathrow (EGLL) TAF / Forecast
2021/09/19 18:09
TAF EGLL 191656Z 1918/2024 34005KT 9999 FEW030 PROB30 
      TEMPO 1918/2003 7000 SHRA PROB30 
      TEMPO 2005/2013 BKN012 PROB30 2021/2024 8000


London Gatwick (EGKK) METAR / Surface Actual
London / Gatwick Airport, United Kingdom (EGKK) 51-09N 000-11W 0M
Sep 19, 2021 - 08:50 PM EDT / 2021.09.20 0050 UTC
Wind: from the NNW (330 degrees) at 6 MPH (5 KT):0
Visibility: greater than 7 mile(s):0
Temperature: 55 F (13 C)
Dew Point: 53 F (12 C)
Relative Humidity: 93%
Pressure (altimeter): 30.06 in. Hg (1018 hPa)
ob: EGKK 200050Z 33005KT CAVOK 13/12 Q1018
cycle: 1
London Gatwick (EGKK) TAF / Forecast
2021/09/19 18:09
TAF EGKK 191657Z 1918/2024 28005KT 9999 SCT030 
      TEMPO 1918/1921 BKN012 PROB30 
      TEMPO 1918/1921 6000 RA SHRA BKN007 PROB30 
      TEMPO 1921/2012 BKN009 PROB30 2021/2024 6000